sensor_id;sensor_type;location;lat;lon;timestamp;pressure;altitude;pressure_sealevel;temperature;humidity
48553;BME280;34335;51.566;6.994;2023-04-22T00:01:48;100280.16;;;9.53;100.00
48553;BME280;34335;51.566;6.994;2023-04-22T00:04:13;100274.09;;;9.48;100.00
48553;BME280;34335;51.566;6.994;2023-04-22T00:06:39;100278.44;;;9.44;100.00
48553;BME280;34335;51.566;6.994;2023-04-22T00:09:04;100279.31;;;9.42;100.00
48553;BME280;34335;51.566;6.994;2023-04-22T00:11:30;100270.69;;;9.30;100.00
48553;BME280;34335;51.566;6.994;2023-04-22T00:13:55;100276.78;;;9.15;100.00
48553;BME280;34335;51.566;6.994;2023-04-22T00:16:20;100273.34;;;9.18;100.00
48553;BME280;34335;51.566;6.994;2023-04-22T00:18:46;100269.88;;;9.16;100.00
48553;BME280;34335;51.566;6.994;2023-04-22T00:21:11;100267.28;;;9.14;100.00
48553;BME280;34335;51.566;6.994;2023-04-22T00:23:36;100260.38;;;9.12;100.00
48553;BME280;34335;51.566;6.994;2023-04-22T00:26:02;100264.69;;;9.08;100.00
48553;BME280;34335;51.566;6.994;2023-04-22T00:28:27;100259.53;;;9.02;100.00
48553;BME280;34335;51.566;6.994;2023-04-22T00:30:53;100262.13;;;8.99;100.00
48553;BME280;34335;51.566;6.994;2023-04-22T00:33:18;100257.78;;;8.99;100.00
48553;BME280;34335;51.566;6.994;2023-04-22T00:35:46;100257.81;;;9.04;100.00
48553;BME280;34335;51.566;6.994;2023-04-22T00:38:12;100259.56;;;8.83;100.00
48553;BME280;34335;51.566;6.994;2023-04-22T00:40:37;100260.41;;;8.71;100.00
48553;BME280;34335;51.566;6.994;2023-04-22T00:43:03;100259.56;;;8.65;100.00
48553;BME280;34335;51.566;6.994;2023-04-22T00:45:29;100251.75;;;8.41;100.00
48553;BME280;34335;51.566;6.994;2023-04-22T00:47:55;100252.59;;;8.43;100.00
48553;BME280;34335;51.566;6.994;2023-04-22T00:50:20;100254.38;;;8.49;100.00
48553;BME280;34335;51.566;6.994;2023-04-22T00:52:46;100248.31;;;8.50;100.00
48553;BME280;34335;51.566;6.994;2023-04-22T00:55:11;100252.63;;;8.48;100.00
48553;BME280;34335;51.566;6.994;2023-04-22T00:57:37;100246.56;;;8.45;100.00
48553;BME280;34335;51.566;6.994;2023-04-22T01:00:04;100249.16;;;8.45;100.00
48553;BME280;34335;51.566;6.994;2023-04-22T01:02:30;100244.00;;;8.41;100.00
48553;BME280;34335;51.566;6.994;2023-04-22T01:04:56;100243.13;;;8.47;100.00
48553;BME280;34335;51.566;6.994;2023-04-22T01:07:22;100247.44;;;8.42;100.00
48553;BME280;34335;51.566;6.994;2023-04-22T01:09:48;100245.69;;;8.41;100.00
48553;BME280;34335;51.566;6.994;2023-04-22T01:12:13;100243.97;;;8.43;100.00
48553;BME280;34335;51.566;6.994;2023-04-22T01:14:39;100247.41;;;8.30;100.00
48553;BME280;34335;51.566;6.994;2023-04-22T01:17:04;100248.28;;;8.33;100.00
48553;BME280;34335;51.566;6.994;2023-04-22T01:19:31;100260.38;;;8.26;100.00
48553;BME280;34335;51.566;6.994;2023-04-22T01:21:58;100258.63;;;8.27;100.00
48553;BME280;34335;51.566;6.994;2023-04-22T01:24:25;100251.72;;;8.27;100.00
48553;BME280;34335;51.566;6.994;2023-04-22T01:26:50;100248.28;;;8.27;100.00
48553;BME280;34335;51.566;6.994;2023-04-22T01:29:16;100252.59;;;8.23;100.00
48553;BME280;34335;51.566;6.994;2023-04-22T01:31:41;100257.75;;;8.20;100.00
48553;BME280;34335;51.566;6.994;2023-04-22T01:34:06;100255.16;;;8.16;100.00
48553;BME280;34335;51.566;6.994;2023-04-22T01:36:32;100260.38;;;8.22;100.00
48553;BME280;34335;51.566;6.994;2023-04-22T01:38:58;100256.06;;;8.21;100.00
48553;BME280;34335;51.566;6.994;2023-04-22T01:41:24;100262.94;;;8.13;100.00
48553;BME280;34335;51.566;6.994;2023-04-22T01:43:52;100257.75;;;8.14;100.00
48553;BME280;34335;51.566;6.994;2023-04-22T01:46:17;100261.19;;;8.05;100.00
48553;BME280;34335;51.566;6.994;2023-04-22T01:48:43;100260.31;;;8.02;100.00
48553;BME280;34335;51.566;6.994;2023-04-22T01:51:15;100266.38;;;8.04;100.00
48553;BME280;34335;51.566;6.994;2023-04-22T01:53:40;100259.47;;;8.03;100.00
48553;BME280;34335;51.566;6.994;2023-04-22T01:56:06;100256.91;;;8.23;100.00
48553;BME280;34335;51.566;6.994;2023-04-22T01:58:32;100262.09;;;8.20;100.00
48553;BME280;34335;51.566;6.994;2023-04-22T02:00:57;100258.59;;;8.15;100.00
48553;BME280;34335;51.566;6.994;2023-04-22T02:03:23;100245.69;;;8.25;100.00
48553;BME280;34335;51.566;6.994;2023-04-22T02:05:48;100253.44;;;8.18;100.00
48553;BME280;34335;51.566;6.994;2023-04-22T02:08:13;100243.97;;;8.29;100.00
48553;BME280;34335;51.566;6.994;2023-04-22T02:10:38;100256.03;;;8.24;100.00
48553;BME280;34335;51.566;6.994;2023-04-22T02:13:04;100246.53;;;8.17;100.00
48553;BME280;34335;51.566;6.994;2023-04-22T02:15:29;100257.72;;;8.08;100.00
48553;BME280;34335;51.566;6.994;2023-04-22T02:17:55;100255.13;;;8.08;100.00
48553;BME280;34335;51.566;6.994;2023-04-22T02:20:20;100252.56;;;8.08;100.00
48553;BME280;34335;51.566;6.994;2023-04-22T02:22:45;100252.56;;;8.16;100.00
48553;BME280;34335;51.566;6.994;2023-04-22T02:25:11;100247.41;;;8.14;100.00
48553;BME280;34335;51.566;6.994;2023-04-22T02:27:38;100236.19;;;8.20;100.00
48553;BME280;34335;51.566;6.994;2023-04-22T02:30:04;100237.06;;;8.42;100.00
48553;BME280;34335;51.566;6.994;2023-04-22T02:32:29;100228.41;;;8.24;100.00
48553;BME280;34335;51.566;6.994;2023-04-22T02:34:55;100236.19;;;8.20;100.00
48553;BME280;34335;51.566;6.994;2023-04-22T02:37:20;100240.50;;;8.18;100.00
48553;BME280;34335;51.566;6.994;2023-04-22T02:39:47;100244.81;;;8.09;100.00
48553;BME280;34335;51.566;6.994;2023-04-22T02:42:13;100230.16;;;8.30;100.00
48553;BME280;34335;51.566;6.994;2023-04-22T02:44:38;100235.31;;;8.13;100.00
48553;BME280;34335;51.566;6.994;2023-04-22T02:47:05;100232.75;;;8.36;100.00
48553;BME280;34335;51.566;6.994;2023-04-22T02:49:31;100218.09;;;8.51;100.00
48553;BME280;34335;51.566;6.994;2023-04-22T02:51:56;100222.38;;;8.42;100.00
48553;BME280;34335;51.566;6.994;2023-04-22T02:54:22;100218.97;;;8.59;100.00
48553;BME280;34335;51.566;6.994;2023-04-22T02:56:47;100212.03;;;8.39;100.00
48553;BME280;34335;51.566;6.994;2023-04-22T02:59:12;100217.19;;;8.27;100.00
48553;BME280;34335;51.566;6.994;2023-04-22T03:01:37;100211.16;;;8.62;100.00
48553;BME280;34335;51.566;6.994;2023-04-22T03:04:03;100210.28;;;8.31;100.00
48553;BME280;34335;51.566;6.994;2023-04-22T03:06:28;100205.97;;;8.28;100.00
48553;BME280;34335;51.566;6.994;2023-04-22T03:08:53;100205.09;;;8.45;100.00
48553;BME280;34335;51.566;6.994;2023-04-22T03:11:19;100201.66;;;8.52;100.00
48553;BME280;34335;51.566;6.994;2023-04-22T03:13:44;100194.72;;;8.32;100.00
48553;BME280;34335;51.566;6.994;2023-04-22T03:16:10;100198.22;;;8.31;100.00
48553;BME280;34335;51.566;6.994;2023-04-22T03:18:35;100195.59;;;8.19;100.00
48553;BME280;34335;51.566;6.994;2023-04-22T03:21:00;100193.03;;;8.22;100.00
48553;BME280;34335;51.566;6.994;2023-04-22T03:23:26;100198.19;;;8.30;100.00
48553;BME280;34335;51.566;6.994;2023-04-22T03:25:51;100200.78;;;8.26;100.00
48553;BME280;34335;51.566;6.994;2023-04-22T03:28:16;100192.16;;;8.38;100.00
48553;BME280;34335;51.566;6.994;2023-04-22T03:30:41;100187.81;;;8.30;100.00
48553;BME280;34335;51.566;6.994;2023-04-22T03:33:25;100185.25;;;8.22;100.00
48553;BME280;34335;51.566;6.994;2023-04-22T03:35:51;100189.56;;;8.24;100.00
48553;BME280;34335;51.566;6.994;2023-04-22T03:38:17;100191.28;;;8.24;100.00
48553;BME280;34335;51.566;6.994;2023-04-22T03:40:42;100186.09;;;8.15;100.00
48553;BME280;34335;51.566;6.994;2023-04-22T03:43:08;100184.38;;;8.41;100.00
48553;BME280;34335;51.566;6.994;2023-04-22T03:45:33;100183.50;;;8.36;100.00
48553;BME280;34335;51.566;6.994;2023-04-22T03:47:59;100173.13;;;8.42;100.00
48553;BME280;34335;51.566;6.994;2023-04-22T03:50:24;100181.78;;;8.26;100.00
48553;BME280;34335;51.566;6.994;2023-04-22T03:52:49;100181.78;;;8.21;100.00
48553;BME280;34335;51.566;6.994;2023-04-22T03:55:15;100177.47;;;8.22;100.00
48553;BME280;34335;51.566;6.994;2023-04-22T03:57:40;100172.28;;;8.20;100.00
48553;BME280;34335;51.566;6.994;2023-04-22T04:00:06;100164.53;;;8.14;100.00
48553;BME280;34335;51.566;6.994;2023-04-22T04:02:31;100173.16;;;8.30;100.00
48553;BME280;34335;51.566;6.994;2023-04-22T04:04:56;100171.44;;;8.57;100.00
48553;BME280;34335;51.566;6.994;2023-04-22T04:07:22;100162.78;;;8.56;100.00
48553;BME280;34335;51.566;6.994;2023-04-22T04:09:47;100160.19;;;8.39;100.00
48553;BME280;34335;51.566;6.994;2023-04-22T04:12:12;100161.06;;;8.63;100.00
48553;BME280;34335;51.566;6.994;2023-04-22T04:14:37;100167.97;;;8.50;100.00
48553;BME280;34335;51.566;6.994;2023-04-22T04:17:03;100167.09;;;8.34;100.00
48553;BME280;34335;51.566;6.994;2023-04-22T04:19:28;100161.03;;;8.40;100.00
48553;BME280;34335;51.566;6.994;2023-04-22T04:21:53;100164.50;;;8.39;100.00
48553;BME280;34335;51.566;6.994;2023-04-22T04:24:19;100163.66;;;8.20;100.00
48553;BME280;34335;51.566;6.994;2023-04-22T04:26:44;100161.06;;;8.31;100.00
48553;BME280;34335;51.566;6.994;2023-04-22T04:29:10;100157.59;;;8.69;100.00
48553;BME280;34335;51.566;6.994;2023-04-22T04:31:35;100152.41;;;8.44;100.00
48553;BME280;34335;51.566;6.994;2023-04-22T04:34:00;100150.69;;;8.31;100.00
48553;BME280;34335;51.566;6.994;2023-04-22T04:36:25;100145.50;;;8.23;100.00
48553;BME280;34335;51.566;6.994;2023-04-22T04:38:53;100145.50;;;8.18;100.00
48553;BME280;34335;51.566;6.994;2023-04-22T04:41:19;100133.41;;;8.20;100.00
48553;BME280;34335;51.566;6.994;2023-04-22T04:43:45;100146.38;;;8.16;100.00
48553;BME280;34335;51.566;6.994;2023-04-22T04:46:10;100146.38;;;8.14;100.00
48553;BME280;34335;51.566;6.994;2023-04-22T04:48:36;100144.66;;;8.18;100.00
48553;BME280;34335;51.566;6.994;2023-04-22T04:51:01;100145.50;;;8.21;100.00
48553;BME280;34335;51.566;6.994;2023-04-22T04:53:28;100146.41;;;8.22;100.00
48553;BME280;34335;51.566;6.994;2023-04-22T04:55:53;100140.31;;;8.31;100.00
48553;BME280;34335;51.566;6.994;2023-04-22T04:58:18;100137.72;;;8.32;100.00
48553;BME280;34335;51.566;6.994;2023-04-22T05:00:44;100133.41;;;8.30;100.00
48553;BME280;34335;51.566;6.994;2023-04-22T05:03:09;100133.41;;;8.61;100.00
48553;BME280;34335;51.566;6.994;2023-04-22T05:05:35;100137.75;;;8.60;100.00
48553;BME280;34335;51.566;6.994;2023-04-22T05:08:00;100134.25;;;8.75;100.00
48553;BME280;34335;51.566;6.994;2023-04-22T05:10:25;100141.16;;;8.75;100.00
48553;BME280;34335;51.566;6.994;2023-04-22T05:12:51;100140.34;;;8.46;100.00
48553;BME280;34335;51.566;6.994;2023-04-22T05:15:16;100136.00;;;8.39;100.00
48553;BME280;34335;51.566;6.994;2023-04-22T05:17:42;100123.06;;;8.48;100.00
48553;BME280;34335;51.566;6.994;2023-04-22T05:20:08;100123.91;;;8.55;100.00
48553;BME280;34335;51.566;6.994;2023-04-22T05:22:33;100124.81;;;8.51;100.00
48553;BME280;34335;51.566;6.994;2023-04-22T05:24:59;100126.41;;;8.98;100.00
48553;BME280;34335;51.566;6.994;2023-04-22T05:27:24;100125.56;;;8.84;100.00
48553;BME280;34335;51.566;6.994;2023-04-22T05:29:50;100125.63;;;8.68;100.00
48553;BME280;34335;51.566;6.994;2023-04-22T05:32:15;100127.22;;;9.03;100.00
48553;BME280;34335;51.566;6.994;2023-04-22T05:34:40;100128.97;;;9.01;100.00
48553;BME280;34335;51.566;6.994;2023-04-22T05:37:06;100123.84;;;8.89;100.00
48553;BME280;34335;51.566;6.994;2023-04-22T05:39:32;100124.66;;;8.96;100.00
48553;BME280;34335;51.566;6.994;2023-04-22T05:41:57;100133.28;;;8.99;100.00
48553;BME280;34335;51.566;6.994;2023-04-22T05:44:23;100132.38;;;9.13;100.00
48553;BME280;34335;51.566;6.994;2023-04-22T05:46:48;100129.00;;;8.95;100.00
48553;BME280;34335;51.566;6.994;2023-04-22T05:49:13;100125.50;;;9.09;100.00
48553;BME280;34335;51.566;6.994;2023-04-22T05:51:39;100123.81;;;8.98;100.00
48553;BME280;34335;51.566;6.994;2023-04-22T05:54:04;100123.72;;;9.17;100.00
48553;BME280;34335;51.566;6.994;2023-04-22T05:56:30;100125.38;;;9.30;100.00
48553;BME280;34335;51.566;6.994;2023-04-22T05:58:55;100129.53;;;9.59;100.00
48553;BME280;34335;51.566;6.994;2023-04-22T06:01:21;100132.19;;;9.56;100.00
48553;BME280;34335;51.566;6.994;2023-04-22T06:03:46;100123.59;;;9.42;100.00
48553;BME280;34335;51.566;6.994;2023-04-22T06:06:11;100130.47;;;9.49;100.00
48553;BME280;34335;51.566;6.994;2023-04-22T06:08:37;100123.50;;;9.56;100.00
48553;BME280;34335;51.566;6.994;2023-04-22T06:11:02;100121.75;;;9.65;100.00
48553;BME280;34335;51.566;6.994;2023-04-22T06:13:27;100125.97;;;9.79;100.00
48553;BME280;34335;51.566;6.994;2023-04-22T06:15:53;100134.66;;;9.72;100.00
48553;BME280;34335;51.566;6.994;2023-04-22T06:18:18;100145.16;;;9.56;100.00
48553;BME280;34335;51.566;6.994;2023-04-22T06:20:43;100136.38;;;9.76;100.00
48553;BME280;34335;51.566;6.994;2023-04-22T06:23:09;100127.69;;;9.77;100.00
48553;BME280;34335;51.566;6.994;2023-04-22T06:25:34;100131.00;;;10.01;100.00
48553;BME280;34335;51.566;6.994;2023-04-22T06:28:00;100131.16;;;9.79;100.00
48553;BME280;34335;51.566;6.994;2023-04-22T06:30:25;100125.03;;;9.86;100.00
48553;BME280;34335;51.566;6.994;2023-04-22T06:32:51;100118.78;;;10.10;100.00
48553;BME280;34335;51.566;6.994;2023-04-22T06:35:17;100130.94;;;10.07;100.00
48553;BME280;34335;51.566;6.994;2023-04-22T06:37:43;100130.97;;;10.02;100.00
48553;BME280;34335;51.566;6.994;2023-04-22T06:40:09;100126.69;;;9.96;100.00
48553;BME280;34335;51.566;6.994;2023-04-22T06:42:34;100122.91;;;10.38;100.00
48553;BME280;34335;51.566;6.994;2023-04-22T06:45:00;100122.06;;;10.31;100.00
48553;BME280;34335;51.566;6.994;2023-04-22T06:47:25;100116.97;;;10.23;100.00
48553;BME280;34335;51.566;6.994;2023-04-22T06:49:50;100114.97;;;10.55;100.00
48553;BME280;34335;51.566;6.994;2023-04-22T06:52:16;100116.75;;;10.48;100.00
48553;BME280;34335;51.566;6.994;2023-04-22T06:54:41;100112.34;;;10.56;100.00
48553;BME280;34335;51.566;6.994;2023-04-22T06:57:06;100114.97;;;10.52;100.00
48553;BME280;34335;51.566;6.994;2023-04-22T06:59:32;100115.22;;;11.08;100.00
48553;BME280;34335;51.566;6.994;2023-04-22T07:01:57;100119.06;;;10.76;100.00
48553;BME280;34335;51.566;6.994;2023-04-22T07:04:23;100120.00;;;10.69;100.00
48553;BME280;34335;51.566;6.994;2023-04-22T07:06:48;100115.44;;;10.89;100.00
48553;BME280;34335;51.566;6.994;2023-04-22T07:09:13;100113.34;;;11.19;100.00
48553;BME280;34335;51.566;6.994;2023-04-22T07:11:39;100112.84;;;11.57;100.00
48553;BME280;34335;51.566;6.994;2023-04-22T07:14:04;100100.84;;;11.46;100.00
48553;BME280;34335;51.566;6.994;2023-04-22T07:16:29;100108.06;;;11.85;100.00
48553;BME280;34335;51.566;6.994;2023-04-22T07:18:55;100093.94;;;12.02;100.00
48553;BME280;34335;51.566;6.994;2023-04-22T07:21:20;100102.59;;;12.04;100.00
48553;BME280;34335;51.566;6.994;2023-04-22T07:23:45;100107.22;;;12.36;100.00
48553;BME280;34335;51.566;6.994;2023-04-22T07:26:11;100105.34;;;12.46;100.00
48553;BME280;34335;51.566;6.994;2023-04-22T07:28:36;100107.94;;;12.91;100.00
48553;BME280;34335;51.566;6.994;2023-04-22T07:31:02;100106.72;;;12.66;100.00
48553;BME280;34335;51.566;6.994;2023-04-22T07:33:27;100105.78;;;12.68;100.00
48553;BME280;34335;51.566;6.994;2023-04-22T07:35:53;100100.00;;;12.96;100.00
48553;BME280;34335;51.566;6.994;2023-04-22T07:38:18;100101.28;;;13.19;100.00
48553;BME280;34335;51.566;6.994;2023-04-22T07:40:43;100094.78;;;13.37;100.00
48553;BME280;34335;51.566;6.994;2023-04-22T07:43:09;100093.59;;;13.13;100.00
48553;BME280;34335;51.566;6.994;2023-04-22T07:45:34;100091.31;;;13.39;100.00
48553;BME280;34335;51.566;6.994;2023-04-22T07:47:59;100082.38;;;13.50;100.00
48553;BME280;34335;51.566;6.994;2023-04-22T07:50:25;100082.13;;;13.61;100.00
48553;BME280;34335;51.566;6.994;2023-04-22T07:52:50;100076.75;;;14.01;100.00
48553;BME280;34335;51.566;6.994;2023-04-22T07:55:16;100091.66;;;14.32;100.00
48553;BME280;34335;51.566;6.994;2023-04-22T07:57:41;100095.75;;;14.43;100.00
48553;BME280;34335;51.566;6.994;2023-04-22T08:00:07;100089.72;;;14.41;100.00
48553;BME280;34335;51.566;6.994;2023-04-22T08:02:33;100085.38;;;14.73;100.00
48553;BME280;34335;51.566;6.994;2023-04-22T08:04:58;100084.06;;;14.56;100.00
48553;BME280;34335;51.566;6.994;2023-04-22T08:07:24;100083.81;;;14.67;100.00
48553;BME280;34335;51.566;6.994;2023-04-22T08:09:49;100076.13;;;14.92;100.00
48553;BME280;34335;51.566;6.994;2023-04-22T08:12:14;100067.50;;;15.19;100.00
48553;BME280;34335;51.566;6.994;2023-04-22T08:14:40;100067.28;;;15.25;100.00
48553;BME280;34335;51.566;6.994;2023-04-22T08:17:05;100064.63;;;15.55;100.00
48553;BME280;34335;51.566;6.994;2023-04-22T08:19:30;100054.91;;;15.58;100.00
48553;BME280;34335;51.566;6.994;2023-04-22T08:21:56;100055.22;;;16.03;100.00
48553;BME280;34335;51.566;6.994;2023-04-22T08:24:22;100055.66;;;15.91;100.00
48553;BME280;34335;51.566;6.994;2023-04-22T08:26:47;100059.13;;;16.16;100.00
48553;BME280;34335;51.566;6.994;2023-04-22T08:29:12;100067.22;;;16.35;100.00
48553;BME280;34335;51.566;6.994;2023-04-22T08:31:38;100055.31;;;16.50;100.00
48553;BME280;34335;51.566;6.994;2023-04-22T08:34:03;100063.00;;;16.57;100.00
48553;BME280;34335;51.566;6.994;2023-04-22T08:36:30;100059.06;;;16.69;100.00
48553;BME280;34335;51.566;6.994;2023-04-22T08:38:55;100056.53;;;16.89;100.00
48553;BME280;34335;51.566;6.994;2023-04-22T08:41:21;100059.25;;;16.88;100.00
48553;BME280;34335;51.566;6.994;2023-04-22T08:43:48;100051.16;;;16.94;100.00
48553;BME280;34335;51.566;6.994;2023-04-22T08:46:14;100049.38;;;16.94;100.00
48553;BME280;34335;51.566;6.994;2023-04-22T08:48:41;100047.56;;;17.19;100.00
48553;BME280;34335;51.566;6.994;2023-04-22T08:51:07;100050.88;;;17.46;100.00
48553;BME280;34335;51.566;6.994;2023-04-22T08:53:32;100040.72;;;17.59;100.00
48553;BME280;34335;51.566;6.994;2023-04-22T08:55:58;100040.34;;;17.68;100.00
48553;BME280;34335;51.566;6.994;2023-04-22T08:58:24;100035.63;;;17.76;100.00
48553;BME280;34335;51.566;6.994;2023-04-22T09:00:49;100028.13;;;17.67;94.86
48553;BME280;34335;51.566;6.994;2023-04-22T09:03:15;100038.41;;;17.73;100.00
48553;BME280;34335;51.566;6.994;2023-04-22T09:05:41;100039.31;;;17.72;100.00
48553;BME280;34335;51.566;6.994;2023-04-22T09:08:08;100027.41;;;17.84;100.00
48553;BME280;34335;51.566;6.994;2023-04-22T09:10:38;100035.47;;;18.02;100.00
48553;BME280;34335;51.566;6.994;2023-04-22T09:13:04;100029.22;;;18.04;100.00
48553;BME280;34335;51.566;6.994;2023-04-22T09:15:30;100020.50;;;18.25;97.17
48553;BME280;34335;51.566;6.994;2023-04-22T09:17:55;100012.78;;;18.41;100.00
48553;BME280;34335;51.566;6.994;2023-04-22T09:20:27;100019.63;;;18.64;100.00
48553;BME280;34335;51.566;6.994;2023-04-22T09:22:53;100020.03;;;18.74;94.33
48553;BME280;34335;51.566;6.994;2023-04-22T09:25:23;100018.22;;;18.76;94.88
48553;BME280;34335;51.566;6.994;2023-04-22T09:27:53;100011.25;;;19.13;96.82
48553;BME280;34335;51.566;6.994;2023-04-22T09:30:33;100007.38;;;19.20;92.01
48553;BME280;34335;51.566;6.994;2023-04-22T09:33:02;100015.03;;;19.44;96.63
48553;BME280;34335;51.566;6.994;2023-04-22T09:35:35;100007.78;;;19.67;89.95
48553;BME280;34335;51.566;6.994;2023-04-22T09:38:03;100002.03;;;19.76;96.07
48553;BME280;34335;51.566;6.994;2023-04-22T09:40:30;100001.81;;;19.81;87.36
48553;BME280;34335;51.566;6.994;2023-04-22T09:42:58;100019.25;;;19.83;93.59
48553;BME280;34335;51.566;6.994;2023-04-22T09:45:38;100007.31;;;20.11;100.00
48553;BME280;34335;51.566;6.994;2023-04-22T09:48:21;100007.31;;;20.45;96.36
48553;BME280;34335;51.566;6.994;2023-04-22T09:50:49;99997.72;;;20.60;79.45
48553;BME280;34335;51.566;6.994;2023-04-22T09:53:16;100003.16;;;20.57;83.01
48553;BME280;34335;51.566;6.994;2023-04-22T09:55:44;99997.53;;;20.80;82.28
48553;BME280;34335;51.566;6.994;2023-04-22T09:58:15;99993.41;;;21.07;83.78
48553;BME280;34335;51.566;6.994;2023-04-22T10:00:46;99994.13;;;21.10;85.68
48553;BME280;34335;51.566;6.994;2023-04-22T10:03:12;99988.47;;;21.16;91.56
48553;BME280;34335;51.566;6.994;2023-04-22T10:05:38;99987.13;;;21.09;87.12
48553;BME280;34335;51.566;6.994;2023-04-22T10:08:05;99983.13;;;21.48;94.64
48553;BME280;34335;51.566;6.994;2023-04-22T10:10:31;99984.91;;;21.48;85.50
48553;BME280;34335;51.566;6.994;2023-04-22T10:12:57;99989.44;;;21.46;81.88
48553;BME280;34335;51.566;6.994;2023-04-22T10:15:23;99990.63;;;21.40;86.90
48553;BME280;34335;51.566;6.994;2023-04-22T10:17:51;99987.06;;;21.41;75.79
48553;BME280;34335;51.566;6.994;2023-04-22T10:20:18;99989.25;;;21.65;79.19
48553;BME280;34335;51.566;6.994;2023-04-22T10:22:45;99986.19;;;21.87;76.80
48553;BME280;34335;51.566;6.994;2023-04-22T10:25:21;99993.13;;;21.74;72.61
48553;BME280;34335;51.566;6.994;2023-04-22T10:28:01;99985.09;;;22.20;79.07
48553;BME280;34335;51.566;6.994;2023-04-22T10:30:29;99973.53;;;22.07;69.45
48553;BME280;34335;51.566;6.994;2023-04-22T10:32:55;99980.97;;;22.60;75.17
48553;BME280;34335;51.566;6.994;2023-04-22T10:35:26;99983.88;;;22.26;77.37
48553;BME280;34335;51.566;6.994;2023-04-22T10:37:54;99980.88;;;21.73;72.88
48553;BME280;34335;51.566;6.994;2023-04-22T10:40:20;99983.28;;;20.99;72.29
48553;BME280;34335;51.566;6.994;2023-04-22T10:42:50;99987.06;;;21.88;77.27
48553;BME280;34335;51.566;6.994;2023-04-22T10:45:15;99978.38;;;22.29;82.12
48553;BME280;34335;51.566;6.994;2023-04-22T10:47:42;99980.28;;;22.56;75.11
48553;BME280;34335;51.566;6.994;2023-04-22T10:50:12;99980.66;;;22.35;69.18
48553;BME280;34335;51.566;6.994;2023-04-22T10:52:38;99984.31;;;22.33;74.61
48553;BME280;34335;51.566;6.994;2023-04-22T10:55:05;99975.25;;;22.66;68.84
48553;BME280;34335;51.566;6.994;2023-04-22T10:57:38;99980.44;;;21.95;70.84
48553;BME280;34335;51.566;6.994;2023-04-22T11:00:25;99981.31;;;22.10;71.24
48553;BME280;34335;51.566;6.994;2023-04-22T11:05:29;99983.41;;;22.63;71.63
48553;BME280;34335;51.566;6.994;2023-04-22T11:08:02;99961.66;;;22.99;78.73
48553;BME280;34335;51.566;6.994;2023-04-22T11:10:44;99966.53;;;22.78;68.20
48553;BME280;34335;51.566;6.994;2023-04-22T11:13:17;99965.94;;;23.29;72.37
48553;BME280;34335;51.566;6.994;2023-04-22T11:15:49;99958.81;;;23.30;76.28
48553;BME280;34335;51.566;6.994;2023-04-22T11:18:25;99968.53;;;23.02;70.88
48553;BME280;34335;51.566;6.994;2023-04-22T11:20:52;99976.66;;;22.71;68.13
48553;BME280;34335;51.566;6.994;2023-04-22T11:23:27;99978.56;;;22.69;68.96
48553;BME280;34335;51.566;6.994;2023-04-22T11:25:54;99972.09;;;23.15;70.17
48553;BME280;34335;51.566;6.994;2023-04-22T11:28:19;99968.06;;;23.10;70.48
48553;BME280;34335;51.566;6.994;2023-04-22T11:30:47;99983.59;;;22.60;66.09
48553;BME280;34335;51.566;6.994;2023-04-22T11:33:14;99983.97;;;22.68;67.80
48553;BME280;34335;51.566;6.994;2023-04-22T11:35:40;99961.00;;;23.63;70.18
48553;BME280;34335;51.566;6.994;2023-04-22T11:38:07;99983.09;;;22.67;68.47
48553;BME280;34335;51.566;6.994;2023-04-22T11:40:35;99974.94;;;23.27;69.52
48553;BME280;34335;51.566;6.994;2023-04-22T11:43:02;99982.19;;;23.38;64.52
48553;BME280;34335;51.566;6.994;2023-04-22T11:45:29;99979.88;;;23.59;68.05
48553;BME280;34335;51.566;6.994;2023-04-22T11:47:55;99983.31;;;22.64;64.44
48553;BME280;34335;51.566;6.994;2023-04-22T11:50:32;99979.91;;;22.48;69.20
48553;BME280;34335;51.566;6.994;2023-04-22T11:53:03;99986.44;;;22.56;66.74
48553;BME280;34335;51.566;6.994;2023-04-22T11:55:33;99983.56;;;22.74;70.04
48553;BME280;34335;51.566;6.994;2023-04-22T11:58:04;99974.50;;;23.20;68.39
48553;BME280;34335;51.566;6.994;2023-04-22T12:00:31;99969.47;;;23.15;66.74
48553;BME280;34335;51.566;6.994;2023-04-22T12:02:59;99966.78;;;23.43;68.60
48553;BME280;34335;51.566;6.994;2023-04-22T12:05:59;99971.06;;;23.18;65.67
48553;BME280;34335;51.566;6.994;2023-04-22T12:08:33;99978.25;;;23.30;68.12
48553;BME280;34335;51.566;6.994;2023-04-22T12:11:03;99970.28;;;23.30;68.84
48553;BME280;34335;51.566;6.994;2023-04-22T12:13:33;99977.97;;;22.93;65.72
48553;BME280;34335;51.566;6.994;2023-04-22T12:16:16;99971.41;;;23.26;70.77
48553;BME280;34335;51.566;6.994;2023-04-22T12:18:54;99978.31;;;23.01;64.10
48553;BME280;34335;51.566;6.994;2023-04-22T12:21:24;99978.97;;;22.91;65.64
48553;BME280;34335;51.566;6.994;2023-04-22T12:24:00;99975.41;;;23.46;66.82
48553;BME280;34335;51.566;6.994;2023-04-22T12:26:29;99971.09;;;23.58;63.49
48553;BME280;34335;51.566;6.994;2023-04-22T12:28:56;99961.06;;;24.02;70.00
48553;BME280;34335;51.566;6.994;2023-04-22T12:31:22;99964.81;;;24.00;69.59
48553;BME280;34335;51.566;6.994;2023-04-22T12:33:47;99959.53;;;23.85;68.63
48553;BME280;34335;51.566;6.994;2023-04-22T12:36:13;99963.31;;;23.55;66.40
48553;BME280;34335;51.566;6.994;2023-04-22T12:38:38;99971.34;;;23.13;63.86
48553;BME280;34335;51.566;6.994;2023-04-22T12:41:05;99967.22;;;22.24;68.30
48553;BME280;34335;51.566;6.994;2023-04-22T12:43:31;99972.31;;;22.56;66.74
48553;BME280;34335;51.566;6.994;2023-04-22T12:45:59;99974.50;;;22.20;67.75
48553;BME280;34335;51.566;6.994;2023-04-22T12:48:24;99974.75;;;22.01;69.82
48553;BME280;34335;51.566;6.994;2023-04-22T12:50:50;99969.84;;;22.82;69.59